Terminal Aerodrome Forecast
Issued by NWS Grand Forks, ND

Home | Current Version | Previous Version | Graphics & Text | Print | Product List | Glossary On
Versions: 1 2 3 4 5 6 7 8 9 10 11 12 13 14 15 16 17 18
000
FTUS43 KFGF 192000 AAB
TAFGFK
TAF AMD
KGFK 192033Z 1921/2018 33019G30KT P6SM VCSH OVC025
      TEMPO 1921/1922 BKN013
     FM200200 33016KT P6SM OVC025
     FM201200 32018G27KT P6SM OVC020
     FM201400 32024G33KT P6SM OVC025=

USA.gov is the U.S. government's official web portal to all federal, state and local government web resources and services.